sensor_id;sensor_type;location;lat;lon;timestamp;temperature;humidity
7518;DHT22;3800;48.922;9.444;2022-12-29T00:00:36;10.20;99.90
7518;DHT22;3800;48.922;9.444;2022-12-29T00:03:04;10.20;99.90
7518;DHT22;3800;48.922;9.444;2022-12-29T00:05:31;10.30;99.90
7518;DHT22;3800;48.922;9.444;2022-12-29T00:07:59;10.30;99.90
7518;DHT22;3800;48.922;9.444;2022-12-29T00:10:27;10.40;99.90
7518;DHT22;3800;48.922;9.444;2022-12-29T00:12:54;10.40;99.90
7518;DHT22;3800;48.922;9.444;2022-12-29T00:15:27;10.40;99.90
7518;DHT22;3800;48.922;9.444;2022-12-29T00:18:00;10.40;99.90
7518;DHT22;3800;48.922;9.444;2022-12-29T00:20:28;10.40;99.90
7518;DHT22;3800;48.922;9.444;2022-12-29T00:23:01;10.50;99.90
7518;DHT22;3800;48.922;9.444;2022-12-29T00:25:35;10.50;99.90
7518;DHT22;3800;48.922;9.444;2022-12-29T00:28:08;10.50;99.90
7518;DHT22;3800;48.922;9.444;2022-12-29T00:30:41;10.50;99.90
7518;DHT22;3800;48.922;9.444;2022-12-29T00:33:16;10.40;99.90
7518;DHT22;3800;48.922;9.444;2022-12-29T00:35:51;10.50;99.90
7518;DHT22;3800;48.922;9.444;2022-12-29T00:38:18;10.50;99.90
7518;DHT22;3800;48.922;9.444;2022-12-29T00:40:51;10.50;99.90
7518;DHT22;3800;48.922;9.444;2022-12-29T00:43:24;10.50;99.90
7518;DHT22;3800;48.922;9.444;2022-12-29T00:45:57;10.50;99.90
7518;DHT22;3800;48.922;9.444;2022-12-29T00:48:25;10.60;99.90
7518;DHT22;3800;48.922;9.444;2022-12-29T00:50:58;10.60;99.90
7518;DHT22;3800;48.922;9.444;2022-12-29T00:53:25;10.60;99.90
7518;DHT22;3800;48.922;9.444;2022-12-29T00:55:53;10.70;99.90
7518;DHT22;3800;48.922;9.444;2022-12-29T00:58:21;10.70;99.90
7518;DHT22;3800;48.922;9.444;2022-12-29T01:00:48;10.80;99.90
7518;DHT22;3800;48.922;9.444;2022-12-29T01:03:16;10.80;99.90
7518;DHT22;3800;48.922;9.444;2022-12-29T01:05:44;10.80;99.90
7518;DHT22;3800;48.922;9.444;2022-12-29T01:08:11;10.90;99.90
7518;DHT22;3800;48.922;9.444;2022-12-29T01:10:39;10.90;99.90
7518;DHT22;3800;48.922;9.444;2022-12-29T01:13:07;10.80;99.90
7518;DHT22;3800;48.922;9.444;2022-12-29T01:15:34;10.90;99.90
7518;DHT22;3800;48.922;9.444;2022-12-29T01:18:02;10.90;99.90
7518;DHT22;3800;48.922;9.444;2022-12-29T01:20:29;10.90;99.90
7518;DHT22;3800;48.922;9.444;2022-12-29T01:22:57;11.00;99.90
7518;DHT22;3800;48.922;9.444;2022-12-29T01:25:25;11.00;99.90
7518;DHT22;3800;48.922;9.444;2022-12-29T01:27:52;11.00;99.90
7518;DHT22;3800;48.922;9.444;2022-12-29T01:30:20;11.00;99.90
7518;DHT22;3800;48.922;9.444;2022-12-29T01:32:48;11.00;99.90
7518;DHT22;3800;48.922;9.444;2022-12-29T01:35:15;11.00;99.90
7518;DHT22;3800;48.922;9.444;2022-12-29T01:37:43;11.00;99.90
7518;DHT22;3800;48.922;9.444;2022-12-29T01:40:11;10.90;99.90
7518;DHT22;3800;48.922;9.444;2022-12-29T01:42:39;11.00;99.90
7518;DHT22;3800;48.922;9.444;2022-12-29T01:45:10;11.00;99.90
7518;DHT22;3800;48.922;9.444;2022-12-29T01:47:40;11.00;99.90
7518;DHT22;3800;48.922;9.444;2022-12-29T01:50:08;10.90;99.90
7518;DHT22;3800;48.922;9.444;2022-12-29T01:52:34;10.90;99.90
7518;DHT22;3800;48.922;9.444;2022-12-29T01:55:02;10.90;99.90
7518;DHT22;3800;48.922;9.444;2022-12-29T01:57:31;10.90;99.90
7518;DHT22;3800;48.922;9.444;2022-12-29T02:00:00;10.90;99.90
7518;DHT22;3800;48.922;9.444;2022-12-29T02:02:26;10.90;99.90
7518;DHT22;3800;48.922;9.444;2022-12-29T02:04:53;11.00;99.90
7518;DHT22;3800;48.922;9.444;2022-12-29T02:07:21;11.00;99.90
7518;DHT22;3800;48.922;9.444;2022-12-29T02:09:49;11.00;99.90
7518;DHT22;3800;48.922;9.444;2022-12-29T02:12:17;11.00;99.90
7518;DHT22;3800;48.922;9.444;2022-12-29T02:14:44;11.00;99.90
7518;DHT22;3800;48.922;9.444;2022-12-29T02:17:33;11.00;99.90
7518;DHT22;3800;48.922;9.444;2022-12-29T02:20:23;11.00;99.90
7518;DHT22;3800;48.922;9.444;2022-12-29T02:22:56;11.00;99.90
7518;DHT22;3800;48.922;9.444;2022-12-29T02:25:46;11.00;99.90
7518;DHT22;3800;48.922;9.444;2022-12-29T02:28:24;11.10;99.90
7518;DHT22;3800;48.922;9.444;2022-12-29T02:30:56;11.10;99.90
7518;DHT22;3800;48.922;9.444;2022-12-29T02:33:23;11.10;99.90
7518;DHT22;3800;48.922;9.444;2022-12-29T02:35:56;11.00;99.90
7518;DHT22;3800;48.922;9.444;2022-12-29T02:38:33;11.00;99.90
7518;DHT22;3800;48.922;9.444;2022-12-29T02:41:06;11.10;99.90
7518;DHT22;3800;48.922;9.444;2022-12-29T02:43:46;11.10;99.90
7518;DHT22;3800;48.922;9.444;2022-12-29T02:46:19;11.00;99.90
7518;DHT22;3800;48.922;9.444;2022-12-29T02:48:50;11.10;99.90
7518;DHT22;3800;48.922;9.444;2022-12-29T02:51:27;11.00;99.90
7518;DHT22;3800;48.922;9.444;2022-12-29T02:53:54;11.00;99.90
7518;DHT22;3800;48.922;9.444;2022-12-29T02:56:27;11.10;99.90
7518;DHT22;3800;48.922;9.444;2022-12-29T02:58:55;11.10;99.90
7518;DHT22;3800;48.922;9.444;2022-12-29T03:01:53;11.10;99.90
7518;DHT22;3800;48.922;9.444;2022-12-29T03:07:06;11.20;99.90
7518;DHT22;3800;48.922;9.444;2022-12-29T03:09:50;11.20;99.90
7518;DHT22;3800;48.922;9.444;2022-12-29T03:15:00;11.20;99.90
7518;DHT22;3800;48.922;9.444;2022-12-29T03:17:40;11.20;99.90
7518;DHT22;3800;48.922;9.444;2022-12-29T03:20:08;11.20;99.90
7518;DHT22;3800;48.922;9.444;2022-12-29T03:22:35;11.20;99.90
7518;DHT22;3800;48.922;9.444;2022-12-29T03:25:04;11.20;99.90
7518;DHT22;3800;48.922;9.444;2022-12-29T03:27:32;11.30;99.90
7518;DHT22;3800;48.922;9.444;2022-12-29T03:30:00;11.30;99.90
7518;DHT22;3800;48.922;9.444;2022-12-29T03:32:31;11.30;99.90
7518;DHT22;3800;48.922;9.444;2022-12-29T03:34:56;11.20;99.90
7518;DHT22;3800;48.922;9.444;2022-12-29T03:37:26;11.30;99.90
7518;DHT22;3800;48.922;9.444;2022-12-29T03:39:52;11.20;99.90
7518;DHT22;3800;48.922;9.444;2022-12-29T03:42:20;11.20;99.90
7518;DHT22;3800;48.922;9.444;2022-12-29T03:44:47;11.20;99.90
7518;DHT22;3800;48.922;9.444;2022-12-29T03:47:15;11.20;99.90
7518;DHT22;3800;48.922;9.444;2022-12-29T03:49:42;11.20;99.90
7518;DHT22;3800;48.922;9.444;2022-12-29T03:52:10;11.30;99.90
7518;DHT22;3800;48.922;9.444;2022-12-29T03:54:38;11.30;99.90
7518;DHT22;3800;48.922;9.444;2022-12-29T03:57:05;11.30;99.90
7518;DHT22;3800;48.922;9.444;2022-12-29T03:59:33;11.30;99.90
7518;DHT22;3800;48.922;9.444;2022-12-29T04:02:00;11.30;99.90
7518;DHT22;3800;48.922;9.444;2022-12-29T04:04:28;11.30;99.90
7518;DHT22;3800;48.922;9.444;2022-12-29T04:06:56;11.20;99.90
7518;DHT22;3800;48.922;9.444;2022-12-29T04:09:23;11.20;99.90
7518;DHT22;3800;48.922;9.444;2022-12-29T04:11:51;11.20;99.90
7518;DHT22;3800;48.922;9.444;2022-12-29T04:14:19;11.20;99.90
7518;DHT22;3800;48.922;9.444;2022-12-29T04:16:46;11.20;99.90
7518;DHT22;3800;48.922;9.444;2022-12-29T04:19:14;11.20;99.90
7518;DHT22;3800;48.922;9.444;2022-12-29T04:21:42;11.20;99.90
7518;DHT22;3800;48.922;9.444;2022-12-29T04:24:09;11.20;99.90
7518;DHT22;3800;48.922;9.444;2022-12-29T04:26:37;11.20;99.90
7518;DHT22;3800;48.922;9.444;2022-12-29T04:29:04;11.10;99.90
7518;DHT22;3800;48.922;9.444;2022-12-29T04:31:32;11.10;99.90
7518;DHT22;3800;48.922;9.444;2022-12-29T04:34:00;11.10;99.90
7518;DHT22;3800;48.922;9.444;2022-12-29T04:36:27;11.10;99.90
7518;DHT22;3800;48.922;9.444;2022-12-29T04:38:55;11.10;99.90
7518;DHT22;3800;48.922;9.444;2022-12-29T04:41:23;11.10;99.90
7518;DHT22;3800;48.922;9.444;2022-12-29T04:43:50;11.10;99.90
7518;DHT22;3800;48.922;9.444;2022-12-29T04:46:18;11.00;99.90
7518;DHT22;3800;48.922;9.444;2022-12-29T04:48:46;11.10;99.90
7518;DHT22;3800;48.922;9.444;2022-12-29T04:51:13;11.10;99.90
7518;DHT22;3800;48.922;9.444;2022-12-29T04:53:41;11.10;99.90
7518;DHT22;3800;48.922;9.444;2022-12-29T04:56:09;11.10;99.90
7518;DHT22;3800;48.922;9.444;2022-12-29T04:58:36;11.10;99.90
7518;DHT22;3800;48.922;9.444;2022-12-29T05:01:04;11.00;99.90
7518;DHT22;3800;48.922;9.444;2022-12-29T05:03:31;11.00;99.90
7518;DHT22;3800;48.922;9.444;2022-12-29T05:05:59;11.00;99.90
7518;DHT22;3800;48.922;9.444;2022-12-29T05:08:27;11.00;99.90
7518;DHT22;3800;48.922;9.444;2022-12-29T05:10:54;11.00;99.90
7518;DHT22;3800;48.922;9.444;2022-12-29T05:13:22;11.00;99.90
7518;DHT22;3800;48.922;9.444;2022-12-29T05:15:51;11.00;99.90
7518;DHT22;3800;48.922;9.444;2022-12-29T05:18:18;11.00;99.90
7518;DHT22;3800;48.922;9.444;2022-12-29T05:20:46;11.00;99.90
7518;DHT22;3800;48.922;9.444;2022-12-29T05:23:13;11.00;99.90
7518;DHT22;3800;48.922;9.444;2022-12-29T05:25:41;10.90;99.90
7518;DHT22;3800;48.922;9.444;2022-12-29T05:28:08;10.90;99.90
7518;DHT22;3800;48.922;9.444;2022-12-29T05:30:36;10.90;99.90
7518;DHT22;3800;48.922;9.444;2022-12-29T05:33:04;10.80;99.90
7518;DHT22;3800;48.922;9.444;2022-12-29T05:35:32;10.80;99.90
7518;DHT22;3800;48.922;9.444;2022-12-29T05:37:59;10.90;99.90
7518;DHT22;3800;48.922;9.444;2022-12-29T05:40:27;10.90;99.90
7518;DHT22;3800;48.922;9.444;2022-12-29T05:42:54;10.90;99.90
7518;DHT22;3800;48.922;9.444;2022-12-29T05:45:22;10.90;99.90
7518;DHT22;3800;48.922;9.444;2022-12-29T05:47:50;10.90;99.90
7518;DHT22;3800;48.922;9.444;2022-12-29T05:50:17;10.90;99.90
7518;DHT22;3800;48.922;9.444;2022-12-29T05:52:45;10.80;99.90
7518;DHT22;3800;48.922;9.444;2022-12-29T05:55:12;10.80;99.90
7518;DHT22;3800;48.922;9.444;2022-12-29T05:57:40;10.80;99.90
7518;DHT22;3800;48.922;9.444;2022-12-29T06:00:08;10.80;99.90
7518;DHT22;3800;48.922;9.444;2022-12-29T06:02:36;10.80;99.90
7518;DHT22;3800;48.922;9.444;2022-12-29T06:05:05;10.80;99.90
7518;DHT22;3800;48.922;9.444;2022-12-29T06:07:33;10.80;99.90
7518;DHT22;3800;48.922;9.444;2022-12-29T06:10:02;10.90;99.90
7518;DHT22;3800;48.922;9.444;2022-12-29T06:12:29;10.90;99.90
7518;DHT22;3800;48.922;9.444;2022-12-29T06:14:57;10.90;99.90
7518;DHT22;3800;48.922;9.444;2022-12-29T06:17:25;10.90;99.90
7518;DHT22;3800;48.922;9.444;2022-12-29T06:19:52;10.80;99.90
7518;DHT22;3800;48.922;9.444;2022-12-29T06:22:20;10.80;99.90
7518;DHT22;3800;48.922;9.444;2022-12-29T06:24:48;10.70;99.90
7518;DHT22;3800;48.922;9.444;2022-12-29T06:27:15;10.70;99.90
7518;DHT22;3800;48.922;9.444;2022-12-29T06:29:43;10.70;99.90
7518;DHT22;3800;48.922;9.444;2022-12-29T06:32:11;10.60;99.90
7518;DHT22;3800;48.922;9.444;2022-12-29T06:34:38;10.60;99.90
7518;DHT22;3800;48.922;9.444;2022-12-29T06:37:06;10.60;99.90
7518;DHT22;3800;48.922;9.444;2022-12-29T06:39:33;10.70;99.90
7518;DHT22;3800;48.922;9.444;2022-12-29T06:42:01;10.70;99.90
7518;DHT22;3800;48.922;9.444;2022-12-29T06:44:29;10.70;99.90
7518;DHT22;3800;48.922;9.444;2022-12-29T06:46:56;10.80;99.90
7518;DHT22;3800;48.922;9.444;2022-12-29T06:49:24;10.80;99.90
7518;DHT22;3800;48.922;9.444;2022-12-29T06:51:52;10.90;99.90
7518;DHT22;3800;48.922;9.444;2022-12-29T06:54:20;10.90;99.90
7518;DHT22;3800;48.922;9.444;2022-12-29T06:56:48;10.90;99.90
7518;DHT22;3800;48.922;9.444;2022-12-29T06:59:16;10.90;99.90
7518;DHT22;3800;48.922;9.444;2022-12-29T07:01:43;11.00;99.90
7518;DHT22;3800;48.922;9.444;2022-12-29T07:04:11;11.00;99.90
7518;DHT22;3800;48.922;9.444;2022-12-29T07:06:39;11.10;99.90
7518;DHT22;3800;48.922;9.444;2022-12-29T07:09:07;11.20;99.90
7518;DHT22;3800;48.922;9.444;2022-12-29T07:11:35;11.20;99.90
7518;DHT22;3800;48.922;9.444;2022-12-29T07:14:04;11.20;99.90
7518;DHT22;3800;48.922;9.444;2022-12-29T07:16:32;11.20;99.90
7518;DHT22;3800;48.922;9.444;2022-12-29T07:19:01;11.20;99.90
7518;DHT22;3800;48.922;9.444;2022-12-29T07:21:28;11.20;99.90
7518;DHT22;3800;48.922;9.444;2022-12-29T07:23:56;11.20;99.90
7518;DHT22;3800;48.922;9.444;2022-12-29T07:26:24;11.30;99.90
7518;DHT22;3800;48.922;9.444;2022-12-29T07:28:51;11.30;99.90
7518;DHT22;3800;48.922;9.444;2022-12-29T07:31:20;11.30;99.90
7518;DHT22;3800;48.922;9.444;2022-12-29T07:33:46;11.30;99.90
7518;DHT22;3800;48.922;9.444;2022-12-29T07:36:14;11.30;99.90
7518;DHT22;3800;48.922;9.444;2022-12-29T07:38:42;11.30;99.90
7518;DHT22;3800;48.922;9.444;2022-12-29T07:41:09;11.20;99.90
7518;DHT22;3800;48.922;9.444;2022-12-29T07:43:37;11.30;99.90
7518;DHT22;3800;48.922;9.444;2022-12-29T07:46:05;11.30;99.90
7518;DHT22;3800;48.922;9.444;2022-12-29T07:48:34;11.40;99.90
7518;DHT22;3800;48.922;9.444;2022-12-29T07:51:02;11.50;99.90
7518;DHT22;3800;48.922;9.444;2022-12-29T07:53:29;11.40;99.90
7518;DHT22;3800;48.922;9.444;2022-12-29T07:55:57;11.50;99.90
7518;DHT22;3800;48.922;9.444;2022-12-29T07:58:25;11.50;99.90
7518;DHT22;3800;48.922;9.444;2022-12-29T08:00:54;11.50;99.90
7518;DHT22;3800;48.922;9.444;2022-12-29T08:03:21;11.40;99.90
7518;DHT22;3800;48.922;9.444;2022-12-29T08:05:49;11.40;99.90
7518;DHT22;3800;48.922;9.444;2022-12-29T08:08:16;11.40;99.90
7518;DHT22;3800;48.922;9.444;2022-12-29T08:10:44;11.40;99.90
7518;DHT22;3800;48.922;9.444;2022-12-29T08:13:13;11.40;99.90
7518;DHT22;3800;48.922;9.444;2022-12-29T08:15:41;11.40;99.90
7518;DHT22;3800;48.922;9.444;2022-12-29T08:18:09;11.50;99.90
7518;DHT22;3800;48.922;9.444;2022-12-29T08:20:37;11.50;99.90
7518;DHT22;3800;48.922;9.444;2022-12-29T08:23:06;11.60;99.90
7518;DHT22;3800;48.922;9.444;2022-12-29T08:25:34;11.60;99.90
7518;DHT22;3800;48.922;9.444;2022-12-29T08:28:01;11.70;99.90
7518;DHT22;3800;48.922;9.444;2022-12-29T08:30:29;11.70;99.90
7518;DHT22;3800;48.922;9.444;2022-12-29T08:32:57;11.70;99.90
7518;DHT22;3800;48.922;9.444;2022-12-29T08:35:24;11.70;99.90
7518;DHT22;3800;48.922;9.444;2022-12-29T08:37:52;11.80;99.90
7518;DHT22;3800;48.922;9.444;2022-12-29T08:40:19;11.80;99.90
7518;DHT22;3800;48.922;9.444;2022-12-29T08:42:47;11.80;99.90
7518;DHT22;3800;48.922;9.444;2022-12-29T08:45:15;11.80;99.90
7518;DHT22;3800;48.922;9.444;2022-12-29T08:47:43;11.80;99.90
7518;DHT22;3800;48.922;9.444;2022-12-29T08:50:10;11.90;99.90
7518;DHT22;3800;48.922;9.444;2022-12-29T08:52:38;11.90;99.90
7518;DHT22;3800;48.922;9.444;2022-12-29T08:55:06;12.00;99.90
7518;DHT22;3800;48.922;9.444;2022-12-29T08:57:34;12.00;99.90
7518;DHT22;3800;48.922;9.444;2022-12-29T09:00:03;12.00;99.90
7518;DHT22;3800;48.922;9.444;2022-12-29T09:02:30;12.00;99.90
7518;DHT22;3800;48.922;9.444;2022-12-29T09:04:58;12.00;99.90
7518;DHT22;3800;48.922;9.444;2022-12-29T09:07:26;12.00;99.90
7518;DHT22;3800;48.922;9.444;2022-12-29T09:09:54;12.00;99.90
7518;DHT22;3800;48.922;9.444;2022-12-29T09:12:22;12.10;99.90
7518;DHT22;3800;48.922;9.444;2022-12-29T09:14:50;12.10;99.90
7518;DHT22;3800;48.922;9.444;2022-12-29T09:17:17;12.10;99.90
7518;DHT22;3800;48.922;9.444;2022-12-29T09:19:53;12.10;99.90
7518;DHT22;3800;48.922;9.444;2022-12-29T09:22:22;12.10;99.90
7518;DHT22;3800;48.922;9.444;2022-12-29T09:24:49;12.10;99.90
7518;DHT22;3800;48.922;9.444;2022-12-29T09:27:17;12.20;99.90
7518;DHT22;3800;48.922;9.444;2022-12-29T09:29:45;12.20;99.90
7518;DHT22;3800;48.922;9.444;2022-12-29T09:32:13;12.20;99.90
7518;DHT22;3800;48.922;9.444;2022-12-29T09:34:41;12.20;99.90
7518;DHT22;3800;48.922;9.444;2022-12-29T09:37:09;12.10;99.90
7518;DHT22;3800;48.922;9.444;2022-12-29T09:39:36;12.20;99.90
7518;DHT22;3800;48.922;9.444;2022-12-29T09:42:26;12.20;99.90
7518;DHT22;3800;48.922;9.444;2022-12-29T09:47:45;12.20;99.90
7518;DHT22;3800;48.922;9.444;2022-12-29T09:50:24;12.20;99.90
7518;DHT22;3800;48.922;9.444;2022-12-29T09:52:57;12.20;99.90
7518;DHT22;3800;48.922;9.444;2022-12-29T09:55:23;12.20;99.90
7518;DHT22;3800;48.922;9.444;2022-12-29T09:58:01;12.20;99.90
7518;DHT22;3800;48.922;9.444;2022-12-29T10:00:38;12.30;99.90
7518;DHT22;3800;48.922;9.444;2022-12-29T10:03:06;12.30;99.90
7518;DHT22;3800;48.922;9.444;2022-12-29T10:08:36;12.40;99.90
7518;DHT22;3800;48.922;9.444;2022-12-29T10:11:11;12.40;99.90
7518;DHT22;3800;48.922;9.444;2022-12-29T10:13:38;12.40;99.90
7518;DHT22;3800;48.922;9.444;2022-12-29T10:16:14;12.50;99.90
7518;DHT22;3800;48.922;9.444;2022-12-29T10:18:47;12.50;99.90
7518;DHT22;3800;48.922;9.444;2022-12-29T10:21:29;12.50;99.90
7518;DHT22;3800;48.922;9.444;2022-12-29T10:23:54;12.40;99.90
7518;DHT22;3800;48.922;9.444;2022-12-29T10:26:23;12.40;99.90
7518;DHT22;3800;48.922;9.444;2022-12-29T10:28:52;12.40;99.90
7518;DHT22;3800;48.922;9.444;2022-12-29T10:31:21;12.30;99.90
7518;DHT22;3800;48.922;9.444;2022-12-29T10:33:49;12.30;99.90
7518;DHT22;3800;48.922;9.444;2022-12-29T10:36:17;12.30;99.90
7518;DHT22;3800;48.922;9.444;2022-12-29T10:38:51;12.30;99.90
7518;DHT22;3800;48.922;9.444;2022-12-29T10:41:22;12.20;99.90
7518;DHT22;3800;48.922;9.444;2022-12-29T10:43:49;12.20;99.90
7518;DHT22;3800;48.922;9.444;2022-12-29T10:46:18;12.10;99.90
7518;DHT22;3800;48.922;9.444;2022-12-29T10:48:45;12.10;99.90
7518;DHT22;3800;48.922;9.444;2022-12-29T10:53:47;12.10;99.90
7518;DHT22;3800;48.922;9.444;2022-12-29T10:56:29;12.10;99.90
7518;DHT22;3800;48.922;9.444;2022-12-29T10:58:57;12.10;99.90
7518;DHT22;3800;48.922;9.444;2022-12-29T11:01:26;12.10;99.90
7518;DHT22;3800;48.922;9.444;2022-12-29T11:03:58;12.00;99.90
7518;DHT22;3800;48.922;9.444;2022-12-29T11:06:25;12.00;99.90
7518;DHT22;3800;48.922;9.444;2022-12-29T11:08:57;12.00;99.90
7518;DHT22;3800;48.922;9.444;2022-12-29T11:11:24;12.00;99.90
7518;DHT22;3800;48.922;9.444;2022-12-29T11:13:51;12.00;99.90
7518;DHT22;3800;48.922;9.444;2022-12-29T11:16:34;12.00;99.90
7518;DHT22;3800;48.922;9.444;2022-12-29T11:19:02;12.00;99.90
7518;DHT22;3800;48.922;9.444;2022-12-29T11:21:34;11.90;99.90
7518;DHT22;3800;48.922;9.444;2022-12-29T11:24:02;11.90;99.90
7518;DHT22;3800;48.922;9.444;2022-12-29T11:26:29;11.90;99.90
7518;DHT22;3800;48.922;9.444;2022-12-29T11:29:04;11.90;99.90
7518;DHT22;3800;48.922;9.444;2022-12-29T11:31:30;11.90;99.90
7518;DHT22;3800;48.922;9.444;2022-12-29T11:33:58;11.90;99.90
7518;DHT22;3800;48.922;9.444;2022-12-29T11:36:26;11.90;99.90
7518;DHT22;3800;48.922;9.444;2022-12-29T11:38:54;11.90;99.90
7518;DHT22;3800;48.922;9.444;2022-12-29T11:41:26;11.90;99.90
7518;DHT22;3800;48.922;9.444;2022-12-29T11:43:53;11.90;99.90
7518;DHT22;3800;48.922;9.444;2022-12-29T11:46:24;12.00;99.90
7518;DHT22;3800;48.922;9.444;2022-12-29T11:48:51;12.00;99.90
7518;DHT22;3800;48.922;9.444;2022-12-29T11:51:23;12.00;99.90
7518;DHT22;3800;48.922;9.444;2022-12-29T11:53:51;12.00;99.90
7518;DHT22;3800;48.922;9.444;2022-12-29T11:58:56;12.10;99.90
7518;DHT22;3800;48.922;9.444;2022-12-29T12:01:32;12.10;99.90
7518;DHT22;3800;48.922;9.444;2022-12-29T12:04:01;12.00;99.90
7518;DHT22;3800;48.922;9.444;2022-12-29T12:06:27;12.10;99.90
7518;DHT22;3800;48.922;9.444;2022-12-29T12:08:59;12.00;99.90
7518;DHT22;3800;48.922;9.444;2022-12-29T12:11:28;12.00;99.90
7518;DHT22;3800;48.922;9.444;2022-12-29T12:14:02;12.10;99.90
7518;DHT22;3800;48.922;9.444;2022-12-29T12:16:47;12.10;99.90
7518;DHT22;3800;48.922;9.444;2022-12-29T12:19:32;12.10;99.90
7518;DHT22;3800;48.922;9.444;2022-12-29T12:22:26;12.00;99.90
7518;DHT22;3800;48.922;9.444;2022-12-29T12:25:12;12.00;99.90
7518;DHT22;3800;48.922;9.444;2022-12-29T12:27:47;12.10;99.90
7518;DHT22;3800;48.922;9.444;2022-12-29T12:30:13;12.00;99.90
7518;DHT22;3800;48.922;9.444;2022-12-29T12:32:41;12.00;99.90
7518;DHT22;3800;48.922;9.444;2022-12-29T12:35:11;11.90;99.90
7518;DHT22;3800;48.922;9.444;2022-12-29T12:37:48;11.80;99.90
7518;DHT22;3800;48.922;9.444;2022-12-29T12:43:18;11.80;99.90
7518;DHT22;3800;48.922;9.444;2022-12-29T12:45:55;11.70;99.90
7518;DHT22;3800;48.922;9.444;2022-12-29T12:48:23;11.70;99.90
7518;DHT22;3800;48.922;9.444;2022-12-29T12:50:51;11.70;99.90
7518;DHT22;3800;48.922;9.444;2022-12-29T12:56:39;11.70;99.90
7518;DHT22;3800;48.922;9.444;2022-12-29T12:59:12;11.60;99.90
7518;DHT22;3800;48.922;9.444;2022-12-29T13:07:23;11.60;99.90
7518;DHT22;3800;48.922;9.444;2022-12-29T13:10:05;11.60;99.90
7518;DHT22;3800;48.922;9.444;2022-12-29T13:12:32;11.60;99.90
7518;DHT22;3800;48.922;9.444;2022-12-29T13:15:07;11.60;99.90
7518;DHT22;3800;48.922;9.444;2022-12-29T13:17:47;11.60;99.90
7518;DHT22;3800;48.922;9.444;2022-12-29T13:20:26;11.60;99.90
7518;DHT22;3800;48.922;9.444;2022-12-29T13:22:58;11.70;99.90
7518;DHT22;3800;48.922;9.444;2022-12-29T13:25:42;11.80;99.90
7518;DHT22;3800;48.922;9.444;2022-12-29T13:28:21;11.80;99.90
7518;DHT22;3800;48.922;9.444;2022-12-29T13:31:00;11.80;99.90
7518;DHT22;3800;48.922;9.444;2022-12-29T13:36:05;11.90;99.90
7518;DHT22;3800;48.922;9.444;2022-12-29T13:38:51;11.90;99.90
7518;DHT22;3800;48.922;9.444;2022-12-29T13:41:56;11.90;99.90
7518;DHT22;3800;48.922;9.444;2022-12-29T13:44:31;12.00;99.90
7518;DHT22;3800;48.922;9.444;2022-12-29T13:46:59;12.00;99.90
7518;DHT22;3800;48.922;9.444;2022-12-29T13:49:26;11.90;99.90
7518;DHT22;3800;48.922;9.444;2022-12-29T13:51:57;11.90;99.90
7518;DHT22;3800;48.922;9.444;2022-12-29T13:54:44;11.90;99.90
7518;DHT22;3800;48.922;9.444;2022-12-29T13:57:28;11.80;99.90
7518;DHT22;3800;48.922;9.444;2022-12-29T13:59:55;11.90;99.90
7518;DHT22;3800;48.922;9.444;2022-12-29T14:02:26;11.80;99.90
7518;DHT22;3800;48.922;9.444;2022-12-29T14:04:57;11.80;99.90
7518;DHT22;3800;48.922;9.444;2022-12-29T14:07:27;11.80;99.90
7518;DHT22;3800;48.922;9.444;2022-12-29T14:09:56;11.80;99.90
7518;DHT22;3800;48.922;9.444;2022-12-29T14:12:38;11.80;99.90
7518;DHT22;3800;48.922;9.444;2022-12-29T14:15:19;11.80;99.90
7518;DHT22;3800;48.922;9.444;2022-12-29T14:17:59;11.80;99.90
7518;DHT22;3800;48.922;9.444;2022-12-29T14:20:17;11.80;99.90
7518;DHT22;3800;48.922;9.444;2022-12-29T14:22:56;11.80;99.90
7518;DHT22;3800;48.922;9.444;2022-12-29T14:28:15;11.80;99.90
7518;DHT22;3800;48.922;9.444;2022-12-29T14:30:49;11.80;99.90
7518;DHT22;3800;48.922;9.444;2022-12-29T14:33:16;11.80;99.90
7518;DHT22;3800;48.922;9.444;2022-12-29T14:35:44;11.80;99.90
7518;DHT22;3800;48.922;9.444;2022-12-29T14:38:14;11.80;99.90
7518;DHT22;3800;48.922;9.444;2022-12-29T14:40:41;11.70;99.90
7518;DHT22;3800;48.922;9.444;2022-12-29T14:43:13;11.70;99.90
7518;DHT22;3800;48.922;9.444;2022-12-29T14:45:41;11.70;99.90
7518;DHT22;3800;48.922;9.444;2022-12-29T14:48:21;11.70;99.90
7518;DHT22;3800;48.922;9.444;2022-12-29T14:50:48;11.70;99.90
7518;DHT22;3800;48.922;9.444;2022-12-29T14:55:56;11.70;99.90
7518;DHT22;3800;48.922;9.444;2022-12-29T14:58:26;11.70;99.90
7518;DHT22;3800;48.922;9.444;2022-12-29T15:00:53;11.60;99.90
7518;DHT22;3800;48.922;9.444;2022-12-29T15:03:23;11.60;99.90
7518;DHT22;3800;48.922;9.444;2022-12-29T15:05:56;11.60;99.90
7518;DHT22;3800;48.922;9.444;2022-12-29T15:08:25;11.60;99.90
7518;DHT22;3800;48.922;9.444;2022-12-29T15:10:57;11.50;99.90
7518;DHT22;3800;48.922;9.444;2022-12-29T15:13:24;11.50;99.90
7518;DHT22;3800;48.922;9.444;2022-12-29T15:15:50;11.50;99.90
7518;DHT22;3800;48.922;9.444;2022-12-29T15:18:23;11.50;99.90
7518;DHT22;3800;48.922;9.444;2022-12-29T15:20:53;11.50;99.90
7518;DHT22;3800;48.922;9.444;2022-12-29T15:23:20;11.50;99.90
7518;DHT22;3800;48.922;9.444;2022-12-29T15:25:52;11.50;99.90
7518;DHT22;3800;48.922;9.444;2022-12-29T15:28:18;11.50;99.90
7518;DHT22;3800;48.922;9.444;2022-12-29T15:30:55;11.50;99.90
7518;DHT22;3800;48.922;9.444;2022-12-29T15:33:24;11.50;99.90
7518;DHT22;3800;48.922;9.444;2022-12-29T15:35:51;11.50;99.90
7518;DHT22;3800;48.922;9.444;2022-12-29T15:38:21;11.50;99.90
7518;DHT22;3800;48.922;9.444;2022-12-29T15:40:51;11.50;99.90
7518;DHT22;3800;48.922;9.444;2022-12-29T15:43:36;11.50;99.90
7518;DHT22;3800;48.922;9.444;2022-12-29T15:46:01;11.50;99.90
7518;DHT22;3800;48.922;9.444;2022-12-29T15:48:30;11.50;99.90
7518;DHT22;3800;48.922;9.444;2022-12-29T15:50:58;11.50;99.90
7518;DHT22;3800;48.922;9.444;2022-12-29T15:53:28;11.50;99.90
7518;DHT22;3800;48.922;9.444;2022-12-29T15:55:59;11.50;99.90
7518;DHT22;3800;48.922;9.444;2022-12-29T15:58:25;11.20;99.90
7518;DHT22;3800;48.922;9.444;2022-12-29T16:00:53;10.90;99.90
7518;DHT22;3800;48.922;9.444;2022-12-29T16:03:20;10.50;99.90
7518;DHT22;3800;48.922;9.444;2022-12-29T16:05:53;10.30;99.90
7518;DHT22;3800;48.922;9.444;2022-12-29T16:08:32;10.00;99.90
7518;DHT22;3800;48.922;9.444;2022-12-29T16:11:01;9.90;99.90
7518;DHT22;3800;48.922;9.444;2022-12-29T16:13:31;9.80;99.90
7518;DHT22;3800;48.922;9.444;2022-12-29T16:16:03;9.70;99.90
7518;DHT22;3800;48.922;9.444;2022-12-29T16:18:32;9.70;99.90
7518;DHT22;3800;48.922;9.444;2022-12-29T16:20:59;9.60;99.90
7518;DHT22;3800;48.922;9.444;2022-12-29T16:23:28;9.60;99.90
7518;DHT22;3800;48.922;9.444;2022-12-29T16:25:56;9.60;99.90
7518;DHT22;3800;48.922;9.444;2022-12-29T16:28:25;9.50;99.90
7518;DHT22;3800;48.922;9.444;2022-12-29T16:31:02;9.50;99.90
7518;DHT22;3800;48.922;9.444;2022-12-29T16:36:20;9.50;99.90
7518;DHT22;3800;48.922;9.444;2022-12-29T16:38:32;9.50;99.90
7518;DHT22;3800;48.922;9.444;2022-12-29T16:41:00;9.50;99.90
7518;DHT22;3800;48.922;9.444;2022-12-29T16:43:30;9.50;99.90
7518;DHT22;3800;48.922;9.444;2022-12-29T16:46:18;9.40;99.90
7518;DHT22;3800;48.922;9.444;2022-12-29T16:48:48;9.40;99.90
7518;DHT22;3800;48.922;9.444;2022-12-29T16:51:16;9.40;99.90
7518;DHT22;3800;48.922;9.444;2022-12-29T16:53:49;9.40;99.90
7518;DHT22;3800;48.922;9.444;2022-12-29T16:56:19;9.30;99.90
7518;DHT22;3800;48.922;9.444;2022-12-29T16:58:46;9.30;99.90